首页
METAR-TAF:

METAR-TAF

机场 :

奥古斯托·塞萨尔·桑地诺国际机场

馬納瓜, 尼加拉瓜

纬度: 12-09N, 经度: 086-10W, 海拔: 50米

当前天气观测

该预报发布于37分钟前的01:00 UTC
风速4节,风向西转西南
温度 31°C
湿度 79%
气压 1008 hPa
能见度10公里或以上
少量云层高于2200英尺
散云层高于30000英尺

METAR: MNMG 250100Z 24004KT 9999 FEW022 SCT300 31/27 Q1008 A2978 NOSIG

时间: 19:37 (01:37 UTC)

预报

该预报发布于4小时和37分钟前的21:00 UTC
预报有效从25日的 00点(UTC)到 25日的 24点(UTC)
风速6节,风向东转东南
能见度10公里或以上
散云层高于2200英尺
短暂存在
从 25日的 03点(UTC)到 25日的 08点(UTC)
能見度: 6000
少量云层高于2200英尺, 积雨云.
雷暴, 雨
成为
从 25日的 13点(UTC)到 25日的 15点(UTC)
风速12节,风向

TAF: MNMG 242100Z 2500/2524 11006KT 9999 SCT022 TEMPO 2503/2508 6000 TSRA FEW022CB BECMG 2513/2515 09012KT

超过4000个机场的气象观测和天气预报(METAR&TAF报告)。

可查询的气象台以黄色和红色小点在地图上表示。

将鼠标移到小点上方,可查看气象台名称。

然后点击查看天气观测和预报。

如需切换地图:点击带黑十字的绿色按钮放大地图;点击带横线的绿色按钮缩小地图;或者点击绿色箭头查看邻近地区的地图。


METAR-TAF: